»·PEaware :: N739GS KBFL-KMHV

N739GS :: KBFL-KMHV

FLIGHT INFORMATION

Flight Status: Arrived
Operator: Privately registered:
United States
More flights under this callsign
Pilot: Gary S. (34551)
Aircraft: CESSNA 172 SKYHAWK
(C172)
More flights by this aircraft type
Origin: KBFL Meadows
United States
Destination: KMHV Mojave
United States
More flights between these airports :: More routes between these airports
Route: BFL MHV
File this flight plan on PilotEdge
Remarks:
Altitude:
(Current/Filed)
9,500ft
Speed:
(Current/Filed)
110kts
Departed: 12-May-21 09:52 AM
Arrived: 12-May-21 10:28 AM
Distance/Time
Traveled:
50nm/0:36
Distance/Time
To Go:
Arrived

Flight Plot

Page will automatically refresh every two minutes.

Flight plan parsing failed; only flown route is shown


Map Options




Map Legend


Flown Route
Filed Route
Departure Airport
Arrival Airport
Navaid (VOR, NDB)
Fix

Horizontal Profiles

Position Reports

Time Latitude Longitude Heading Altitude Ground
Speed
12-May-21 09:41 35.429658 -119.046616 136 500ft 0kts
12-May-21 09:42 35.429658 -119.046616 136 500ft 0kts
12-May-21 09:43 35.429658 -119.046616 136 500ft 0kts
12-May-21 09:44 35.429658 -119.046616 136 500ft 0kts
12-May-21 09:45 35.429658 -119.046616 136 500ft 0kts
12-May-21 09:46 35.429658 -119.046616 136 500ft 0kts
12-May-21 09:47 35.429658 -119.046616 136 500ft 0kts
12-May-21 09:48 35.428465 -119.047079 187 493ft 14kts
12-May-21 09:49 35.425737 -119.045075 228 483ft 0kts
12-May-21 09:50 35.425709 -119.045113 226 483ft 5kts
12-May-21 09:51 35.437027 -119.059733 314 907ft 90kts
12-May-21 09:52 35.459576 -119.068638 54 1733ft 100kts
12-May-21 09:53 35.449107 -119.040507 133 2548ft 96kts
12-May-21 09:54 35.430872 -119.016062 132 3366ft 93kts
12-May-21 09:55 35.415276 -118.989653 123 4190ft 95kts
12-May-21 09:56 35.401473 -118.960904 121 5008ft 95kts
12-May-21 09:57 35.388731 -118.932344 120 5819ft 92kts
12-May-21 09:58 35.376762 -118.904803 120 6636ft 85kts
12-May-21 09:59 35.364742 -118.877024 120 7273ft 95kts
12-May-21 10:00 35.351938 -118.847364 121 7882ft 98kts
12-May-21 10:01 35.339051 -118.817456 121 8489ft 97kts
12-May-21 10:02 35.326483 -118.788286 121 9092ft 94kts
12-May-21 10:03 35.314091 -118.759613 121 9541ft 105kts
12-May-21 10:04 35.299590 -118.726197 120 9553ft 109kts
12-May-21 10:05 35.284976 -118.692372 119 9576ft 109kts
12-May-21 10:06 35.272909 -118.657434 114 9599ft 109kts
12-May-21 10:07 35.259605 -118.623433 118 9623ft 108kts
12-May-21 10:08 35.245290 -118.590105 118 9646ft 108kts
12-May-21 10:09 35.230974 -118.557006 117 9641ft 110kts
12-May-21 10:10 35.216010 -118.522446 117 9583ft 109kts
12-May-21 10:11 35.201389 -118.488715 117 9573ft 110kts
12-May-21 10:12 35.186698 -118.454872 117 9573ft 110kts
12-May-21 10:13 35.171976 -118.420986 117 9573ft 110kts
12-May-21 10:14 35.157298 -118.387232 117 9573ft 110kts
12-May-21 10:15 35.142647 -118.353576 117 9573ft 110kts
12-May-21 10:16 35.128600 -118.321361 118 9571ft 95kts
12-May-21 10:17 35.115516 -118.295059 124 8819ft 84kts
12-May-21 10:18 35.097566 -118.279196 168 7981ft 82kts
12-May-21 10:19 35.074194 -118.274407 158 7123ft 82kts
12-May-21 10:20 35.054788 -118.260707 102 6207ft 82kts
12-May-21 10:21 35.047896 -118.231810 102 4927ft 87kts
12-May-21 10:22 35.047802 -118.202392 89 4018ft 82kts
12-May-21 10:23 35.049968 -118.175371 68 3758ft 80kts
12-May-21 10:24 35.047759 -118.146725 91 3682ft 83kts
12-May-21 10:25 35.048130 -118.117243 64 3225ft 86kts
12-May-21 10:26 35.059422 -118.127101 259 2908ft 82kts
12-May-21 10:27 35.059166 -118.152353 271 2760ft 40kts
12-May-21 10:28 35.058095 -118.157788 180 2768ft 0kts
12-May-21 10:29 35.056964 -118.150406 128 2750ft 20kts
12-May-21 10:30 35.056608 -118.149696 89 2748ft 0kts
12-May-21 10:31 35.056608 -118.149688 88 2748ft 0kts
12-May-21 10:32 35.056608 -118.149688 88 2748ft 0kts
12-May-21 10:33 35.056608 -118.149688 88 2748ft 0kts
12-May-21 10:34 35.056608 -118.149688 88 2748ft 0kts
12-May-21 10:35 35.057586 -118.150273 274 2751ft 14kts
12-May-21 10:36 35.057601 -118.158807 270 2767ft 22kts
12-May-21 10:37 35.058471 -118.165122 321 2781ft 0kts
12-May-21 10:38 35.058824 -118.165477 320 2782ft 15kts
12-May-21 10:39 35.059131 -118.141760 89 3238ft 92kts
12-May-21 10:40 35.062901 -118.111318 26 4113ft 94kts
12-May-21 10:41 35.086760 -118.120247 313 4943ft 97kts

Navigation Log

Ident Type
Flight plan parsing failed, navigation log unavailable